Time;durP1;ratioP1;P1;durP2;ratioP2;P2;SDS_P1;SDS_P2;PMS_P1;PMS_P2;Temp;Humidity;BMP_temperature;BMP_pressure;BME280_temperature;BME280_humidity;BME280_pressure;Samples;Min_cycle;Max_cycle;Signal;HPM_P1;HPM_P2
2023/06/17 00:01:26;;;;;;;3.43;2.77;;;;;;;15.29;100.00;99130.84;5110022;28;20654;-76
2023/06/17 00:03:53;;;;;;;3.73;3.43;;;;;;;15.23;100.00;99134.56;5114005;28;20236;-76
2023/06/17 00:06:20;;;;;;;3.27;2.97;;;;;;;15.13;100.00;99135.34;5105982;28;20199;-78
2023/06/17 00:08:48;;;;;;;3.50;3.20;;;;;;;15.08;100.00;99134.47;5114378;28;20662;-76
2023/06/17 00:11:15;;;;;;;3.67;3.30;;;;;;;15.14;100.00;99136.97;5105915;28;20219;-78
2023/06/17 00:13:41;;;;;;;3.83;3.23;;;;;;;15.13;100.00;99135.34;5114355;28;20192;-78
2023/06/17 00:16:09;;;;;;;3.40;3.03;;;;;;;15.04;100.00;99136.06;5111451;28;20214;-76
2023/06/17 00:18:36;;;;;;;3.50;3.20;;;;;;;15.06;100.00;99128.56;5112384;28;20195;-75
2023/06/17 00:21:02;;;;;;;3.63;3.17;;;;;;;15.07;100.00;99130.19;5112335;28;20236;-75
2023/06/17 00:23:30;;;;;;;4.30;3.07;;;;;;;15.04;100.00;99130.69;5112556;28;20605;-75
2023/06/17 00:25:56;;;;;;;3.30;3.00;;;;;;;15.13;100.00;99134.50;5114078;28;20195;-78
2023/06/17 00:28:23;;;;;;;3.40;3.10;;;;;;;15.10;100.00;99132.34;5114013;28;20606;-78
2023/06/17 00:30:51;;;;;;;3.93;3.40;;;;;;;15.16;100.00;99132.13;5110067;28;20306;-76
2023/06/17 00:33:17;;;;;;;3.50;3.20;;;;;;;15.19;100.00;99137.00;5088556;28;20189;-77
2023/06/17 00:35:44;;;;;;;3.73;3.10;;;;;;;15.14;100.00;99134.25;5105464;28;20192;-77
2023/06/17 00:38:11;;;;;;;3.73;3.33;;;;;;;15.19;100.00;99125.38;5100859;28;20553;-76
2023/06/17 00:40:37;;;;;;;4.33;3.03;;;;;;;15.23;100.00;99138.09;5106527;28;20192;-76
2023/06/17 00:43:04;;;;;;;3.70;3.40;;;;;;;15.17;100.00;99138.31;5076006;28;20193;-77
2023/06/17 00:45:38;;;;;;;3.67;3.30;;;;;;;15.34;100.00;99137.09;5110662;28;20203;-77
2023/06/17 00:48:10;;;;;;;3.57;3.27;;;;;;;15.28;100.00;99138.13;5089212;28;20207;-75
2023/06/17 00:50:37;;;;;;;4.00;3.60;;;;;;;15.20;100.00;99135.13;5092284;28;20207;-75
2023/06/17 00:53:05;;;;;;;3.30;3.10;;;;;;;15.19;100.00;99131.59;5086374;28;20181;-75
2023/06/17 00:55:35;;;;;;;3.73;3.43;;;;;;;15.22;100.00;99136.47;5109319;28;20653;-75
2023/06/17 00:58:02;;;;;;;3.60;3.30;;;;;;;15.21;100.00;99129.44;5080869;28;20618;-74
2023/06/17 01:00:29;;;;;;;3.70;3.40;;;;;;;15.16;100.00;99136.72;5108990;28;20203;-74
2023/06/17 01:02:56;;;;;;;3.80;3.40;;;;;;;15.10;100.00;99129.66;5084471;28;20289;-76
2023/06/17 01:05:24;;;;;;;3.83;3.50;;;;;;;15.15;100.00;99125.09;5103161;28;20192;-74
2023/06/17 01:07:58;;;;;;;4.37;3.60;;;;;;;15.14;100.00;99122.66;5107656;28;20196;-75
2023/06/17 01:10:37;;;;;;;4.53;3.57;;;;;;;15.15;100.00;99129.69;5104006;28;20211;-75
2023/06/17 01:13:05;;;;;;;4.23;3.40;;;;;;;15.07;100.00;99128.28;5083190;28;20208;-75
2023/06/17 01:15:35;;;;;;;4.17;3.73;;;;;;;14.96;100.00;99124.72;5106526;28;20202;-76
2023/06/17 01:18:04;;;;;;;4.20;3.80;;;;;;;14.95;100.00;99122.28;5085570;28;20282;-76
2023/06/17 01:20:32;;;;;;;4.20;3.80;;;;;;;15.15;100.00;99124.28;5085789;28;20562;-75
2023/06/17 01:23:00;;;;;;;4.60;3.90;;;;;;;15.04;100.00;99118.00;5092456;28;20198;-76
2023/06/17 01:25:31;;;;;;;4.27;3.80;;;;;;;14.94;100.00;99120.63;5094803;28;20210;-75
2023/06/17 01:28:03;;;;;;;4.27;3.90;;;;;;;14.87;100.00;99117.38;5108698;28;20241;-76
2023/06/17 01:30:30;;;;;;;5.53;3.63;;;;;;;14.85;100.00;99114.94;5093019;28;20302;-75
2023/06/17 01:32:59;;;;;;;4.17;3.87;;;;;;;14.80;100.00;99122.16;5111916;28;20263;-76
2023/06/17 01:35:31;;;;;;;4.20;3.80;;;;;;;14.77;100.00;99110.03;5104864;28;20238;-76
2023/06/17 01:38:23;;;;;;;4.50;4.10;;;;;;;14.71;100.00;99115.63;5082685;28;20566;-76
2023/06/17 01:40:57;;;;;;;4.77;3.90;;;;;;;14.63;100.00;99110.72;5073908;28;20211;-76
2023/06/17 01:43:25;;;;;;;4.47;4.07;;;;;;;14.62;100.00;99112.59;5075084;28;20260;-75
2023/06/17 01:45:53;;;;;;;5.33;3.90;;;;;;;14.67;100.00;99114.53;5112530;28;20187;-77
2023/06/17 01:48:19;;;;;;;4.70;4.30;;;;;;;14.73;100.00;99117.00;5093715;28;20211;-76
2023/06/17 01:50:46;;;;;;;5.40;3.77;;;;;;;14.75;100.00;99119.44;5094083;28;20227;-75
2023/06/17 01:53:13;;;;;;;4.30;3.90;;;;;;;14.70;100.00;99122.09;5088386;28;20268;-76
2023/06/17 01:55:39;;;;;;;4.70;4.07;;;;;;;14.62;100.00;99122.56;5098288;28;20760;-75
2023/06/17 01:58:06;;;;;;;4.60;4.20;;;;;;;14.62;100.00;99123.38;5092340;28;20192;-76
2023/06/17 02:00:33;;;;;;;4.50;4.10;;;;;;;14.62;100.00;99122.56;5088553;28;20204;-75
2023/06/17 02:02:59;;;;;;;4.50;4.10;;;;;;;14.59;100.00;99128.50;5090245;28;20234;-75
2023/06/17 02:05:26;;;;;;;5.20;3.87;;;;;;;14.60;100.00;99130.94;5091890;28;20184;-75
2023/06/17 02:07:55;;;;;;;4.30;3.90;;;;;;;14.48;100.00;99131.09;5082699;28;20651;-75
2023/06/17 02:10:22;;;;;;;5.70;4.30;;;;;;;14.68;100.00;99125.06;5073811;28;20215;-75
2023/06/17 02:12:49;;;;;;;4.63;4.23;;;;;;;14.82;100.00;99130.81;5104413;28;20662;-75
2023/06/17 02:15:16;;;;;;;5.00;4.50;;;;;;;14.84;100.00;99125.97;5060897;28;20208;-76
2023/06/17 02:17:43;;;;;;;4.77;4.37;;;;;;;14.90;100.00;99131.16;5100904;28;20194;-76
2023/06/17 02:20:10;;;;;;;4.53;4.13;;;;;;;14.92;100.00;99141.69;5091974;28;20198;-75
2023/06/17 02:22:37;;;;;;;5.00;4.50;;;;;;;14.97;100.00;99136.31;5087540;28;20188;-76
2023/06/17 02:25:05;;;;;;;6.63;4.87;;;;;;;15.00;100.00;99135.78;5093752;28;20794;-75
2023/06/17 02:27:31;;;;;;;4.70;4.30;;;;;;;14.92;100.00;99130.91;5096634;28;20684;-75
2023/06/17 02:29:58;;;;;;;6.30;4.80;;;;;;;14.93;100.00;99133.31;5107090;28;20666;-76
2023/06/17 02:32:27;;;;;;;5.10;4.70;;;;;;;14.91;100.00;99137.34;5105843;28;20195;-76
2023/06/17 02:34:57;;;;;;;4.80;4.40;;;;;;;15.01;100.00;99132.03;5097261;28;20221;-75
2023/06/17 02:37:25;;;;;;;5.67;4.73;;;;;;;15.04;100.00;99138.78;5080119;28;20666;-77
2023/06/17 02:39:52;;;;;;;5.20;4.70;;;;;;;14.96;100.00;99129.28;5103217;28;20200;-75
2023/06/17 02:42:19;;;;;;;4.70;4.33;;;;;;;15.01;100.00;99137.44;5085350;28;20205;-76
2023/06/17 02:44:47;;;;;;;4.70;4.30;;;;;;;14.95;100.00;99136.56;5085165;28;20204;-76
2023/06/17 02:47:14;;;;;;;5.30;4.70;;;;;;;15.01;100.00;99137.44;5105364;28;20249;-76
2023/06/17 02:49:41;;;;;;;5.30;4.53;;;;;;;14.89;100.00;99132.22;5094969;28;20230;-77
2023/06/17 02:52:08;;;;;;;5.40;4.90;;;;;;;14.86;100.00;99140.00;5100874;28;20756;-75
2023/06/17 02:54:35;;;;;;;5.50;4.50;;;;;;;14.78;100.00;99135.09;5077856;28;20197;-76
2023/06/17 02:57:06;;;;;;;4.97;4.57;;;;;;;14.75;100.00;99135.59;5083016;28;20721;-75
2023/06/17 02:59:33;;;;;;;5.97;4.47;;;;;;;14.78;100.00;99127.84;5073610;28;20201;-76
2023/06/17 03:02:00;;;;;;;5.00;4.60;;;;;;;14.79;100.00;99124.03;5070535;28;20212;-75
2023/06/17 03:04:35;;;;;;;5.07;4.67;;;;;;;14.93;100.00;99132.53;5070668;28;20227;-76
2023/06/17 03:07:06;;;;;;;4.60;4.20;;;;;;;14.94;100.00;99129.53;5087581;28;20209;-76
2023/06/17 03:09:33;;;;;;;5.03;4.60;;;;;;;14.89;100.00;99128.69;5097156;28;20227;-75
2023/06/17 03:12:02;;;;;;;5.07;4.57;;;;;;;14.87;100.00;99134.38;5096873;28;20215;-76
2023/06/17 03:14:29;;;;;;;5.27;4.70;;;;;;;14.99;100.00;99134.97;5067443;28;20573;-75
2023/06/17 03:16:58;;;;;;;5.97;4.47;;;;;;;14.99;100.00;99137.69;5097078;28;20204;-76
2023/06/17 03:19:27;;;;;;;5.80;4.73;;;;;;;15.09;100.00;99133.41;5086243;28;20206;-75
2023/06/17 03:21:54;;;;;;;5.33;4.83;;;;;;;15.04;100.00;99136.06;5096896;28;20286;-75
2023/06/17 03:24:25;;;;;;;5.60;4.80;;;;;;;15.16;100.00;99142.09;5084816;28;20212;-76
2023/06/17 03:26:53;;;;;;;5.13;4.73;;;;;;;15.24;100.00;99136.22;5076984;28;20204;-75
2023/06/17 03:29:20;;;;;;;4.80;4.40;;;;;;;15.29;100.00;99141.63;5082097;28;20192;-74
2023/06/17 03:31:51;;;;;;;5.00;4.50;;;;;;;15.31;100.00;99129.50;5084144;28;20219;-75
2023/06/17 03:34:18;;;;;;;5.10;4.70;;;;;;;15.39;100.00;99139.00;5105292;28;20200;-77
2023/06/17 03:36:47;;;;;;;4.90;4.50;;;;;;;15.42;100.00;99141.16;5092358;28;20238;-75
2023/06/17 03:39:14;;;;;;;5.30;4.20;;;;;;;15.66;100.00;99130.78;5114867;28;20194;-75
2023/06/17 03:41:41;;;;;;;4.90;4.50;;;;;;;15.85;100.00;99132.72;5096710;28;20666;-76
2023/06/17 03:44:08;;;;;;;4.43;4.03;;;;;;;15.82;100.00;99130.53;5089499;28;20204;-75
2023/06/17 03:46:35;;;;;;;5.20;4.70;;;;;;;15.84;100.00;99141.09;5096161;28;20680;-76
2023/06/17 03:49:02;;;;;;;4.93;4.30;;;;;;;15.89;100.00;99146.50;5096570;28;20625;-75
2023/06/17 03:51:30;;;;;;;4.90;4.50;;;;;;;15.97;100.00;99147.88;5096577;28;20311;-77
2023/06/17 03:53:57;;;;;;;5.23;4.73;;;;;;;16.13;100.00;99136.84;5114031;28;20218;-75
2023/06/17 03:56:26;;;;;;;5.70;4.73;;;;;;;16.17;100.00;99151.44;5114689;28;20212;-76
2023/06/17 03:58:54;;;;;;;4.93;4.53;;;;;;;16.21;100.00;99143.59;5096113;28;20551;-75
2023/06/17 04:01:21;;;;;;;4.87;4.47;;;;;;;16.17;100.00;99139.81;5094995;28;20203;-75
2023/06/17 04:03:48;;;;;;;4.97;4.17;;;;;;;16.03;100.00;99138.72;5111759;28;20226;-76
2023/06/17 04:06:15;;;;;;;5.03;4.40;;;;;;;16.20;100.00;99141.97;5112662;28;20191;-75
2023/06/17 04:08:43;;;;;;;4.73;4.33;;;;;;;16.12;100.00;99137.09;5095968;28;20223;-75
2023/06/17 04:11:13;;;;;;;4.67;4.20;;;;;;;16.20;100.00;99139.28;5114736;28;20283;-74
2023/06/17 04:13:39;;;;;;;5.00;4.50;;;;;;;16.27;100.00;99137.16;5114183;28;20567;-74
2023/06/17 04:16:07;;;;;;;4.80;4.40;;;;;;;16.34;100.00;99137.69;5114284;28;20192;-76
2023/06/17 04:18:33;;;;;;;4.67;4.27;;;;;;;16.33;100.00;99133.34;5094012;28;20588;-76
2023/06/17 04:21:01;;;;;;;4.30;3.97;;;;;;;16.49;100.00;99132.28;5084004;28;20287;-76
2023/06/17 04:23:30;;;;;;;4.90;4.27;;;;;;;16.70;100.00;99130.44;5080206;28;20328;-76
2023/06/17 04:25:57;;;;;;;4.90;4.50;;;;;;;18.47;100.00;99141.41;5079901;28;20727;-75
2023/06/17 04:28:24;;;;;;;5.00;4.60;;;;;;;20.26;100.00;99135.66;5088279;28;20211;-76
2023/06/17 04:30:52;;;;;;;4.50;4.10;;;;;;;21.29;100.00;99140.78;5101383;28;20226;-74
2023/06/17 04:33:19;;;;;;;4.70;4.17;;;;;;;22.40;100.00;99149.38;5103765;28;20196;-75
2023/06/17 04:35:47;;;;;;;4.40;4.00;;;;;;;21.83;100.00;99142.72;5090896;28;20204;-76
2023/06/17 04:38:14;;;;;;;4.73;4.33;;;;;;;20.55;100.00;99149.94;5079415;28;20667;-76
2023/06/17 04:40:42;;;;;;;4.77;4.37;;;;;;;19.39;100.00;99141.41;5089637;28;20648;-75
2023/06/17 04:43:10;;;;;;;5.10;4.60;;;;;;;18.86;100.00;99146.81;5081562;28;20659;-75
2023/06/17 04:45:36;;;;;;;4.60;3.90;;;;;;;18.66;100.00;99149.72;5088774;28;20219;-75
2023/06/17 04:48:05;;;;;;;4.27;3.87;;;;;;;18.66;100.00;99148.91;5092141;28;20291;-76
2023/06/17 04:50:33;;;;;;;4.40;4.10;;;;;;;18.60;100.00;99139.97;5093911;28;20208;-74
2023/06/17 04:53:03;;;;;;;4.70;4.30;;;;;;;18.49;100.00;99139.22;5094980;28;20189;-76
2023/06/17 04:55:35;;;;;;;4.87;4.00;;;;;;;18.81;100.00;99144.13;5093710;28;20689;-76
2023/06/17 04:58:04;;;;;;;4.67;4.20;;;;;;;18.95;100.00;99143.47;5094961;28;20235;-76
2023/06/17 05:00:39;;;;;;;4.80;4.40;;;;;;;19.25;100.00;99138.56;5093039;28;20220;-76
2023/06/17 05:03:08;;;;;;;4.80;4.23;;;;;;;19.64;100.00;99138.41;5091363;28;20324;-76
2023/06/17 05:05:36;;;;;;;5.60;4.30;;;;;;;19.98;100.00;99146.38;5090452;28;20623;-76
2023/06/17 05:08:03;;;;;;;4.53;4.13;;;;;;;20.22;100.00;99144.44;5091363;28;20624;-75
2023/06/17 05:10:30;;;;;;;4.83;4.40;;;;;;;20.60;100.00;99145.25;5091112;28;20198;-75
2023/06/17 05:12:56;;;;;;;4.80;4.20;;;;;;;20.76;100.00;99140.38;5089925;28;20197;-77
2023/06/17 05:15:25;;;;;;;4.80;4.30;;;;;;;20.81;100.00;99142.97;5088574;28;20208;-77
2023/06/17 05:17:52;;;;;;;4.33;4.03;;;;;;;20.83;100.00;99138.06;5089482;28;20204;-76
2023/06/17 05:20:19;;;;;;;5.60;4.50;;;;;;;20.82;100.00;99147.31;5076430;28;20273;-75
2023/06/17 05:22:46;;;;;;;4.40;4.03;;;;;;;20.90;100.00;99146.63;5079980;28;20206;-77
2023/06/17 05:25:13;;;;;;;4.30;3.90;;;;;;;20.22;100.00;99152.59;5085641;28;20259;-75
2023/06/17 05:27:40;;;;;;;4.37;3.97;;;;;;;20.34;100.00;99160.34;5091179;28;20203;-75
2023/06/17 05:30:08;;;;;;;7.10;4.43;;;;;;;20.47;100.00;99156.88;5090868;28;20580;-75
2023/06/17 05:32:37;;;;;;;5.97;4.20;;;;;;;20.62;100.00;99151.19;5090095;28;20592;-75
2023/06/17 05:35:04;;;;;;;4.57;3.90;;;;;;;20.85;100.00;99154.09;5087586;28;20193;-75
2023/06/17 05:37:32;;;;;;;4.03;3.63;;;;;;;20.90;100.00;99154.00;5088858;28;20694;-75
2023/06/17 05:40:00;;;;;;;4.40;3.70;;;;;;;20.86;100.00;99156.50;5086262;28;20267;-76
2023/06/17 05:42:27;;;;;;;4.27;3.80;;;;;;;20.67;100.00;99155.72;5090698;28;20223;-75
2023/06/17 05:44:55;;;;;;;4.03;3.63;;;;;;;20.64;100.00;99159.06;5079863;28;20203;-75
2023/06/17 05:47:21;;;;;;;3.63;3.33;;;;;;;20.47;100.00;99156.06;5072280;28;20212;-76
2023/06/17 05:49:48;;;;;;;3.67;3.30;;;;;;;20.46;100.00;99154.44;5086777;28;20535;-76
2023/06/17 05:52:15;;;;;;;4.00;3.60;;;;;;;20.16;100.00;99161.91;5090421;28;20219;-75
2023/06/17 05:54:41;;;;;;;3.60;3.30;;;;;;;20.09;100.00;99160.66;5090053;28;20200;-75
2023/06/17 05:57:08;;;;;;;4.30;3.90;;;;;;;20.03;100.00;99156.38;5085625;28;20213;-74
2023/06/17 05:59:35;;;;;;;3.80;3.47;;;;;;;19.60;100.00;99159.09;5090056;28;20241;-74
2023/06/17 06:02:02;;;;;;;3.93;3.57;;;;;;;19.79;100.00;99161.88;5083622;28;20593;-74
2023/06/17 06:04:30;;;;;;;4.00;3.60;;;;;;;19.99;100.00;99169.75;5068641;28;20318;-75
2023/06/17 06:06:56;;;;;;;4.23;3.90;;;;;;;20.04;100.00;99166.16;5084279;28;20722;-75
2023/06/17 06:09:24;;;;;;;4.40;4.00;;;;;;;20.00;100.00;99162.44;5088076;28;20296;-75
2023/06/17 06:11:51;;;;;;;6.50;3.73;;;;;;;19.97;100.00;99166.50;5081657;28;20231;-75
2023/06/17 06:14:18;;;;;;;4.43;3.93;;;;;;;20.16;100.00;99169.25;5081081;28;20871;-75
2023/06/17 06:16:46;;;;;;;5.23;4.30;;;;;;;20.26;100.00;99174.56;5071127;28;20558;-75
2023/06/17 06:19:13;;;;;;;4.37;3.97;;;;;;;20.21;100.00;99175.44;5072239;28;20739;-75
2023/06/17 06:21:42;;;;;;;4.60;4.20;;;;;;;20.13;100.00;99181.53;5061478;28;20208;-77
2023/06/17 06:24:08;;;;;;;4.57;4.17;;;;;;;20.27;100.00;99181.63;5077191;28;20199;-74
2023/06/17 06:26:37;;;;;;;5.10;4.10;;;;;;;20.34;100.00;99173.94;5081368;28;20205;-75
2023/06/17 06:29:04;;;;;;;4.47;4.07;;;;;;;20.43;100.00;99179.53;5078016;28;20257;-75
2023/06/17 06:31:32;;;;;;;5.90;4.20;;;;;;;20.70;100.00;99174.22;5086971;28;20218;-75
2023/06/17 06:34:00;;;;;;;4.30;3.97;;;;;;;20.60;100.00;99174.38;5075396;28;20200;-77
2023/06/17 06:36:26;;;;;;;4.13;3.83;;;;;;;20.57;100.00;99180.41;5080865;28;20183;-75
2023/06/17 06:38:53;;;;;;;3.90;3.60;;;;;;;20.37;100.00;99178.78;5081077;28;20710;-77
2023/06/17 06:41:20;;;;;;;4.30;4.00;;;;;;;20.65;100.00;99175.09;5085146;28;20203;-75
2023/06/17 06:44:00;;;;;;;4.43;4.03;;;;;;;20.99;100.00;99163.13;5075863;28;20295;-74
2023/06/17 06:46:26;;;;;;;4.17;3.87;;;;;;;20.98;100.00;99167.75;5076616;28;20240;-75
2023/06/17 06:48:54;;;;;;;3.80;3.50;;;;;;;20.57;100.00;99173.06;5074916;28;20197;-75
2023/06/17 06:51:21;;;;;;;4.00;3.70;;;;;;;20.95;100.00;99175.72;5077454;28;20311;-75
2023/06/17 06:53:48;;;;;;;3.67;3.37;;;;;;;21.02;100.00;99170.69;5076556;28;20231;-74
2023/06/17 06:56:15;;;;;;;3.70;3.40;;;;;;;20.83;100.00;99168.00;5077757;28;20254;-75
2023/06/17 06:58:42;;;;;;;3.80;3.50;;;;;;;20.85;100.00;99163.06;5075265;28;20227;-73
2023/06/17 07:01:10;;;;;;;3.67;3.37;;;;;;;20.97;100.00;99166.13;5077443;28;20224;-74
2023/06/17 07:03:37;;;;;;;3.17;2.90;;;;;;;21.00;100.00;99170.97;5078153;28;20257;-74
2023/06/17 07:06:06;;;;;;;3.83;3.40;;;;;;;20.94;100.00;99169.47;5085460;28;20684;-76
2023/06/17 07:08:33;;;;;;;2.93;2.73;;;;;;;21.24;100.00;99165.41;5083153;28;20224;-74
2023/06/17 07:11:00;;;;;;;3.57;2.87;;;;;;;21.10;100.00;99172.72;5085148;28;20596;-75
2023/06/17 07:13:27;;;;;;;3.43;2.83;;;;;;;21.16;100.00;99165.28;5075097;28;20674;-76
2023/06/17 07:15:55;;;;;;;2.87;2.60;;;;;;;21.12;100.00;99178.69;5065419;28;20204;-76
2023/06/17 07:18:22;;;;;;;3.23;2.97;;;;;;;21.15;100.00;99167.19;5079319;28;20192;-75
2023/06/17 07:20:49;;;;;;;3.30;2.97;;;;;;;20.96;100.00;99167.22;5077700;28;20227;-75
2023/06/17 07:23:17;;;;;;;3.47;3.17;;;;;;;21.22;100.00;99172.28;5075997;28;20196;-76
2023/06/17 07:25:44;;;;;;;3.20;2.90;;;;;;;21.34;100.00;99172.59;5074206;28;20249;-74
2023/06/17 07:28:11;;;;;;;3.23;2.93;;;;;;;21.45;100.00;99158.47;5071260;28;20200;-75
2023/06/17 07:30:40;;;;;;;3.17;2.70;;;;;;;21.51;100.00;99168.16;5081061;28;20600;-75
2023/06/17 07:33:06;;;;;;;3.40;3.13;;;;;;;21.49;100.00;99161.41;5064898;28;20243;-75
2023/06/17 07:35:33;;;;;;;2.90;2.70;;;;;;;21.70;100.00;99169.97;5070300;28;20201;-76
2023/06/17 07:38:00;;;;;;;3.67;3.07;;;;;;;21.87;100.00;99165.53;5089982;28;20520;-75
2023/06/17 07:40:28;;;;;;;3.40;3.10;;;;;;;21.61;100.00;99172.59;5092604;28;20193;-77
2023/06/17 07:42:55;;;;;;;3.73;3.20;;;;;;;21.64;100.00;99166.56;5081853;28;20198;-75
2023/06/17 07:45:22;;;;;;;3.53;3.23;;;;;;;21.67;99.85;99159.69;5078673;28;20201;-75
2023/06/17 07:47:49;;;;;;;3.50;3.20;;;;;;;21.38;99.68;99158.06;5083012;28;20249;-74
2023/06/17 07:50:16;;;;;;;3.53;3.23;;;;;;;21.48;100.00;99149.69;5078001;28;20728;-76
2023/06/17 07:52:43;;;;;;;3.40;3.10;;;;;;;21.64;100.00;99155.66;5069733;28;20225;-75
2023/06/17 07:55:10;;;;;;;3.47;3.17;;;;;;;21.89;100.00;99155.13;5076850;28;20730;-75
2023/06/17 07:57:37;;;;;;;4.13;3.13;;;;;;;21.84;99.07;99160.66;5077167;28;20231;-74
2023/06/17 08:00:12;;;;;;;4.10;2.90;;;;;;;22.07;99.43;99155.34;5076664;28;20562;-74
2023/06/17 08:02:42;;;;;;;3.40;3.20;;;;;;;22.25;97.49;99151.66;5079451;28;20242;-75
2023/06/17 08:05:09;;;;;;;3.50;3.20;;;;;;;22.30;98.59;99154.28;5103264;28;20597;-75
2023/06/17 08:07:36;;;;;;;3.43;3.13;;;;;;;22.40;95.32;99156.75;5110838;28;20202;-74
2023/06/17 08:10:04;;;;;;;3.93;3.57;;;;;;;22.46;94.73;99160.16;5113816;28;20194;-75
2023/06/17 08:12:35;;;;;;;3.30;3.00;;;;;;;22.38;91.90;99167.97;5103110;28;20219;-75
2023/06/17 08:15:01;;;;;;;3.70;3.40;;;;;;;22.30;90.54;99163.22;5088102;28;20188;-75
2023/06/17 08:17:28;;;;;;;3.40;3.10;;;;;;;22.27;90.59;99154.88;5085523;28;20611;-75
2023/06/17 08:19:55;;;;;;;4.73;3.30;;;;;;;22.23;92.16;99160.13;5092826;28;20200;-76
2023/06/17 08:22:22;;;;;;;3.33;3.10;;;;;;;22.44;91.12;99160.50;5092338;28;20272;-75
2023/06/17 08:24:49;;;;;;;3.87;3.07;;;;;;;22.49;91.11;99160.34;5099757;28;20631;-74
2023/06/17 08:27:16;;;;;;;3.28;2.97;;;;;;;22.51;91.73;99165.50;5096953;28;20651;-75
2023/06/17 08:29:43;;;;;;;3.40;3.20;;;;;;;22.75;89.20;99150.47;5097295;28;20190;-75
2023/06/17 08:32:09;;;;;;;5.13;3.10;;;;;;;22.92;87.73;99148.97;5096145;28;20571;-78
2023/06/17 08:34:36;;;;;;;3.23;2.90;;;;;;;22.90;88.29;99146.56;5100003;28;20280;-75
2023/06/17 08:37:04;;;;;;;4.13;3.72;;;;;;;23.14;86.44;99148.94;5096231;28;20245;-75
2023/06/17 08:39:31;;;;;;;4.50;3.40;;;;;;;22.94;86.55;99146.72;5096979;28;20196;-75
2023/06/17 08:41:59;;;;;;;3.30;3.00;;;;;;;22.86;85.02;99147.50;5094894;28;20249;-75
2023/06/17 08:44:28;;;;;;;3.30;3.03;;;;;;;23.33;85.40;99149.50;5096759;28;20192;-75
2023/06/17 08:46:57;;;;;;;3.72;3.05;;;;;;;23.71;85.44;99144.38;5078574;28;20663;-76
2023/06/17 08:49:24;;;;;;;3.25;3.05;;;;;;;23.41;85.77;99143.28;5085192;28;20647;-74
2023/06/17 08:51:51;;;;;;;3.50;3.20;;;;;;;23.83;83.47;99147.31;5078459;28;20705;-76
2023/06/17 08:54:19;;;;;;;4.60;3.50;;;;;;;23.42;83.11;99142.16;5096564;28;20188;-75
2023/06/17 08:56:46;;;;;;;4.10;3.70;;;;;;;23.66;84.12;99144.50;5091247;28;20273;-74
2023/06/17 08:59:12;;;;;;;3.60;3.30;;;;;;;23.80;83.42;99144.38;5095553;28;20569;-75
2023/06/17 09:01:40;;;;;;;3.45;3.15;;;;;;;24.24;81.83;99148.84;5081780;28;20608;-74
2023/06/17 09:04:07;;;;;;;3.65;3.35;;;;;;;24.53;77.79;99129.88;5076772;28;20219;-74
2023/06/17 09:06:34;;;;;;;3.80;3.50;;;;;;;24.58;77.33;99135.19;5096483;28;20229;-74
2023/06/17 09:09:01;;;;;;;3.63;3.30;;;;;;;24.43;79.01;99138.41;5101419;28;20191;-75
2023/06/17 09:11:30;;;;;;;3.80;3.42;;;;;;;24.40;78.09;99134.34;5094597;28;20211;-74
2023/06/17 09:13:59;;;;;;;3.67;3.38;;;;;;;23.75;79.08;99136.34;5099790;28;20254;-75
2023/06/17 09:16:31;;;;;;;3.90;3.60;;;;;;;24.24;80.00;99137.91;5092295;28;20736;-75
2023/06/17 09:18:59;;;;;;;5.40;3.45;;;;;;;24.05;79.41;99132.69;5079237;28;20196;-75
2023/06/17 09:21:27;;;;;;;3.83;3.53;;;;;;;24.40;81.57;99131.63;5092817;28;20608;-75
2023/06/17 09:23:55;;;;;;;3.97;3.60;;;;;;;24.57;77.64;99133.56;5092787;28;20197;-75
2023/06/17 09:26:28;;;;;;;3.85;3.35;;;;;;;24.45;77.19;99128.72;5091418;28;20200;-75
2023/06/17 09:29:03;;;;;;;4.10;3.53;;;;;;;24.75;77.13;99118.72;5074420;28;20234;-75
2023/06/17 09:31:31;;;;;;;4.18;3.72;;;;;;;24.80;77.46;99124.03;5071929;28;20234;-77
2023/06/17 09:34:02;;;;;;;3.75;3.40;;;;;;;25.09;73.14;99126.09;5091085;28;20296;-75
2023/06/17 09:36:29;;;;;;;3.60;3.30;;;;;;;25.26;71.94;99127.94;5089654;28;20206;-77
2023/06/17 09:38:56;;;;;;;3.40;3.20;;;;;;;25.09;71.97;99122.53;5073334;28;20240;-77
2023/06/17 09:41:23;;;;;;;4.07;3.67;;;;;;;25.39;73.00;99122.25;5094277;28;20612;-78
2023/06/17 09:43:54;;;;;;;4.95;3.13;;;;;;;24.78;71.49;99122.72;5097454;28;20199;-77
2023/06/17 09:46:29;;;;;;;3.53;3.22;;;;;;;24.78;73.53;99112.56;5095440;28;20281;-79
2023/06/17 09:48:57;;;;;;;4.10;3.72;;;;;;;24.78;73.47;99118.06;5098381;28;20615;-78
2023/06/17 09:51:25;;;;;;;3.85;3.55;;;;;;;25.25;73.91;99116.19;5096834;28;20211;-75
2023/06/17 09:53:55;;;;;;;3.90;3.53;;;;;;;25.15;73.26;99113.78;5095459;28;20619;-76
2023/06/17 09:56:22;;;;;;;5.05;3.30;;;;;;;24.96;71.58;99127.09;5077759;28;20215;-75
2023/06/17 09:58:50;;;;;;;3.30;3.03;;;;;;;24.91;69.73;99122.59;5092672;28;20209;-75
2023/06/17 10:01:17;;;;;;;3.90;3.60;;;;;;;25.33;69.30;99120.84;5091266;28;20193;-75
2023/06/17 10:03:45;;;;;;;4.05;3.72;;;;;;;25.57;69.43;99117.50;5102506;28;20314;-74
2023/06/17 10:06:13;;;;;;;3.92;3.60;;;;;;;25.80;69.05;99126.28;5097374;28;20193;-75
2023/06/17 10:08:43;;;;;;;3.85;3.55;;;;;;;25.60;67.44;99114.13;5088461;28;20223;-75
2023/06/17 10:11:12;;;;;;;5.15;4.03;;;;;;;25.69;68.43;99114.06;5086338;28;20186;-76
2023/06/17 10:13:40;;;;;;;4.68;3.55;;;;;;;25.72;67.60;99108.72;5083673;28;20217;-75
2023/06/17 10:16:09;;;;;;;4.03;3.63;;;;;;;25.35;68.99;99115.81;5106158;28;20278;-75
2023/06/17 10:18:38;;;;;;;4.13;3.80;;;;;;;25.24;68.82;99108.31;5080695;28;20193;-77
2023/06/17 10:21:08;;;;;;;3.67;3.38;;;;;;;25.38;69.54;99114.38;5080836;28;20254;-75
2023/06/17 10:23:36;;;;;;;4.00;3.60;;;;;;;25.46;71.15;99109.97;5099241;28;20199;-77
2023/06/17 10:26:06;;;;;;;3.90;3.60;;;;;;;25.58;71.08;99099.94;5083571;28;20192;-77
2023/06/17 10:28:45;;;;;;;4.55;3.40;;;;;;;25.98;71.31;99100.34;5099089;28;20196;-78
2023/06/17 10:31:24;;;;;;;4.07;3.67;;;;;;;26.50;68.58;99097.97;5077521;28;20291;-78
2023/06/17 10:33:54;;;;;;;3.90;3.60;;;;;;;26.08;67.72;99101.88;5100257;28;20228;-78
2023/06/17 10:36:22;;;;;;;4.05;3.75;;;;;;;25.62;67.66;99097.31;5085380;28;20715;-78
2023/06/17 10:38:54;;;;;;;4.72;4.30;;;;;;;25.21;66.86;99087.00;5104843;28;20568;-77
2023/06/17 10:41:51;;;;;;;3.92;3.63;;;;;;;25.07;67.28;99089.16;5105717;28;20256;-77
2023/06/17 10:44:27;;;;;;;4.05;3.75;;;;;;;25.55;68.59;99084.13;5089385;28;20198;-78
2023/06/17 10:46:55;;;;;;;3.88;3.58;;;;;;;25.80;66.94;99074.94;5092400;28;20262;-77
2023/06/17 10:49:22;;;;;;;4.78;4.30;;;;;;;26.70;67.15;99071.59;5072878;28;20180;-78
2023/06/17 10:51:50;;;;;;;4.05;3.75;;;;;;;26.46;63.89;99072.31;5093265;28;20188;-78
2023/06/17 10:54:31;;;;;;;3.90;3.55;;;;;;;25.77;62.49;99069.31;5095251;28;20195;-77
2023/06/17 10:57:01;;;;;;;4.38;3.97;;;;;;;25.56;62.89;99071.22;5095664;28;20219;-77
2023/06/17 10:59:29;;;;;;;4.32;4.00;;;;;;;25.50;61.66;99073.31;5084159;28;20195;-76
2023/06/17 11:02:01;;;;;;;3.83;3.53;;;;;;;24.94;62.89;99080.00;5097516;28;20199;-75
2023/06/17 11:04:32;;;;;;;4.03;3.72;;;;;;;24.89;62.50;99071.97;5090332;28;20229;-79
2023/06/17 11:07:00;;;;;;;4.05;3.65;;;;;;;24.56;63.70;99066.22;5105729;28;20556;-75
2023/06/17 11:09:28;;;;;;;4.03;3.72;;;;;;;24.56;63.04;99077.16;5101372;28;20187;-76
2023/06/17 11:11:56;;;;;;;4.03;3.60;;;;;;;24.56;64.02;99071.69;5090525;28;20186;-76
2023/06/17 11:14:25;;;;;;;4.40;4.00;;;;;;;24.66;65.87;99076.03;5092159;28;20215;-76
2023/06/17 11:16:52;;;;;;;4.03;3.72;;;;;;;24.84;66.58;99067.44;5085396;28;20208;-75
2023/06/17 11:19:19;;;;;;;4.30;4.00;;;;;;;24.93;67.16;99070.19;5096837;28;20217;-76
2023/06/17 11:22:03;;;;;;;4.63;4.20;;;;;;;25.09;67.90;99074.00;5088316;28;20219;-76
2023/06/17 11:24:31;;;;;;;4.45;4.10;;;;;;;25.22;67.91;99072.19;5090350;28;20648;-76
2023/06/17 11:26:58;;;;;;;4.55;4.15;;;;;;;25.34;71.38;99066.78;5088714;28;20253;-76
2023/06/17 11:29:26;;;;;;;5.80;4.22;;;;;;;25.30;72.06;99061.16;5092119;28;20697;-75
2023/06/17 11:31:59;;;;;;;4.32;4.00;;;;;;;25.38;72.81;99075.97;5087586;28;20191;-75